Time;durP1;ratioP1;P1;durP2;ratioP2;P2;SDS_P1;SDS_P2;PMS_P1;PMS_P2;Temp;Humidity;BMP_temperature;BMP_pressure;BME280_temperature;BME280_humidity;BME280_pressure;Samples;Min_cycle;Max_cycle;Signal;HPM_P1;HPM_P2
2023/04/08 00:00:34;;;;;;;21.08;16.73;;;;;;;7.69;100.00;100823.81;5007663;28;20037;-69
2023/04/08 00:03:01;;;;;;;23.80;17.90;;;;;;;7.75;100.00;100818.09;5007369;28;20096;-69
2023/04/08 00:05:26;;;;;;;23.17;16.90;;;;;;;7.84;100.00;100818.63;4993210;28;20489;-68
2023/04/08 00:07:52;;;;;;;20.83;17.42;;;;;;;8.01;100.00;100822.09;5008497;28;20054;-68
2023/04/08 00:10:17;;;;;;;21.98;17.20;;;;;;;8.00;100.00;100822.00;4995390;28;20030;-69
2023/04/08 00:12:43;;;;;;;21.80;17.08;;;;;;;8.06;100.00;100819.75;4992941;28;20143;-69
2023/04/08 00:15:09;;;;;;;24.77;17.05;;;;;;;7.99;100.00;100808.25;4997783;28;20254;-69
2023/04/08 00:17:34;;;;;;;23.75;16.77;;;;;;;7.88;100.00;100805.13;4989940;28;20057;-68
2023/04/08 00:20:00;;;;;;;21.60;18.02;;;;;;;7.80;100.00;100777.22;4990863;28;20038;-66
2023/04/08 00:22:25;;;;;;;24.10;17.80;;;;;;;7.46;100.00;100737.78;4990469;28;20042;-69
2023/04/08 00:24:51;;;;;;;22.77;17.27;;;;;;;7.73;100.00;100812.00;4990546;28;20057;-69
2023/04/08 00:27:16;;;;;;;23.00;17.75;;;;;;;7.78;100.00;100808.88;5005945;28;20081;-68
2023/04/08 00:29:42;;;;;;;21.30;16.95;;;;;;;7.87;100.00;100816.19;5010013;28;20084;-68
2023/04/08 00:32:07;;;;;;;22.42;17.45;;;;;;;7.96;100.00;100813.22;5007590;28;20416;-69
2023/04/08 00:34:33;;;;;;;22.10;16.92;;;;;;;7.83;100.00;100792.84;5010407;28;20061;-68
2023/04/08 00:36:58;;;;;;;24.25;17.10;;;;;;;7.97;100.00;100809.84;5010104;28;20030;-67
2023/04/08 00:39:24;;;;;;;26.48;17.60;;;;;;;8.01;100.00;100816.03;5010424;28;20044;-68
2023/04/08 00:41:49;;;;;;;25.15;17.92;;;;;;;8.04;100.00;100798.22;5009707;28;20042;-68
2023/04/08 00:44:15;;;;;;;25.67;18.10;;;;;;;8.09;100.00;100786.50;5005486;28;20043;-68
2023/04/08 00:46:40;;;;;;;24.60;18.13;;;;;;;8.17;100.00;100794.59;4990498;28;20046;-65
2023/04/08 00:49:06;;;;;;;21.75;16.70;;;;;;;8.22;100.00;100800.84;4997687;28;20035;-68
2023/04/08 00:51:32;;;;;;;23.35;16.85;;;;;;;8.19;100.00;100809.31;4990143;28;20544;-69
2023/04/08 00:53:59;;;;;;;23.60;17.08;;;;;;;8.17;100.00;100810.91;4999896;28;20651;-67
2023/04/08 00:56:25;;;;;;;23.83;17.70;;;;;;;7.93;100.00;100777.97;5010101;28;20038;-68
2023/04/08 00:58:54;;;;;;;23.50;17.02;;;;;;;7.84;100.00;100808.34;5008160;28;20037;-66
2023/04/08 01:01:38;;;;;;;22.25;17.45;;;;;;;7.79;100.00;100794.34;5010294;28;20038;-72
2023/04/08 01:04:39;;;;;;;21.73;17.77;;;;;;;7.83;100.00;100815.97;5009732;28;20045;-69
2023/04/08 01:07:18;;;;;;;25.55;17.65;;;;;;;7.73;100.00;100824.88;5009210;28;20129;-66
2023/04/08 01:09:47;;;;;;;26.73;17.55;;;;;;;7.79;100.00;100820.06;5009867;28;20046;-69
2023/04/08 01:12:19;;;;;;;22.75;16.80;;;;;;;7.85;100.00;100825.53;5009908;28;20527;-68
2023/04/08 01:14:47;;;;;;;22.75;17.27;;;;;;;7.76;100.00;100809.59;5010027;28;20038;-68
2023/04/08 01:17:17;;;;;;;25.55;18.70;;;;;;;7.84;100.00;100825.41;5009808;28;20053;-68
2023/04/08 01:19:46;;;;;;;23.70;18.30;;;;;;;7.81;100.00;100831.28;5008401;28;20045;-67
2023/04/08 01:22:27;;;;;;;26.13;18.10;;;;;;;7.80;100.00;100826.97;5009662;28;20030;-67
2023/04/08 01:25:01;;;;;;;28.80;18.05;;;;;;;7.75;100.00;100831.84;5009599;28;20268;-67
2023/04/08 01:27:30;;;;;;;25.38;18.85;;;;;;;7.68;100.00;100832.31;5009908;28;20076;-67
2023/04/08 01:29:58;;;;;;;28.08;19.42;;;;;;;7.61;100.00;100828.53;5009439;28;20045;-67
2023/04/08 01:32:24;;;;;;;24.58;17.75;;;;;;;7.51;100.00;100803.13;5009770;28;20107;-68
2023/04/08 01:34:51;;;;;;;24.15;17.77;;;;;;;7.55;100.00;100825.63;5009737;28;20034;-65
2023/04/08 01:37:17;;;;;;;23.30;17.27;;;;;;;7.57;100.00;100825.72;5009902;28;20030;-69
2023/04/08 01:39:44;;;;;;;25.80;18.48;;;;;;;7.35;100.00;100785.09;5009400;28;20805;-69
2023/04/08 01:42:30;;;;;;;22.40;18.92;;;;;;;7.48;100.00;100825.19;5009938;28;20038;-68
2023/04/08 01:44:59;;;;;;;25.85;19.17;;;;;;;7.09;100.00;100797.38;4987240;28;20042;-68
2023/04/08 01:47:27;;;;;;;25.70;18.65;;;;;;;7.30;100.00;100849.06;4987425;28;20050;-68
2023/04/08 01:49:54;;;;;;;24.20;18.75;;;;;;;7.20;100.00;100837.41;4987552;28;20042;-70
2023/04/08 01:52:22;;;;;;;25.85;18.73;;;;;;;7.22;100.00;100847.75;4987247;28;20030;-68
2023/04/08 01:54:49;;;;;;;25.95;18.35;;;;;;;7.11;100.00;100830.03;4990124;28;20161;-67
2023/04/08 01:57:22;;;;;;;24.58;18.38;;;;;;;7.12;100.00;100844.66;4974606;28;20042;-69
2023/04/08 01:59:51;;;;;;;23.98;18.15;;;;;;;6.88;100.00;100810.78;4990670;28;20137;-68
2023/04/08 02:02:20;;;;;;;26.33;19.90;;;;;;;7.00;100.00;100833.69;4990734;28;20129;-71
2023/04/08 02:04:45;;;;;;;23.73;18.33;;;;;;;7.01;100.00;100850.84;4990755;28;20053;-65
2023/04/08 02:07:11;;;;;;;25.55;19.13;;;;;;;6.93;100.00;100852.13;4990601;28;20054;-65
2023/04/08 02:09:37;;;;;;;24.58;18.50;;;;;;;6.84;100.00;100842.22;4990226;28;20042;-67
2023/04/08 02:12:02;;;;;;;26.77;18.75;;;;;;;6.68;100.00;100855.81;4990733;28;20105;-67
2023/04/08 02:14:28;;;;;;;23.38;18.48;;;;;;;6.44;100.00;100855.22;4990665;28;20035;-70
2023/04/08 02:17:17;;;;;;;25.35;18.25;;;;;;;6.22;100.00;100856.50;5006725;28;20041;-66
2023/04/08 02:19:55;;;;;;;26.42;19.50;;;;;;;5.89;100.00;100812.59;5009637;28;20057;-70
2023/04/08 02:22:36;;;;;;;24.45;18.60;;;;;;;6.11;100.00;100860.97;5009760;28;20062;-65
2023/04/08 02:25:03;;;;;;;33.63;19.63;;;;;;;6.17;100.00;100857.00;5009831;28;20124;-70
2023/04/08 02:27:33;;;;;;;26.02;19.38;;;;;;;6.19;100.00;100863.13;5009921;28;20543;-69
2023/04/08 02:30:01;;;;;;;26.55;19.02;;;;;;;6.25;100.00;100856.69;5009604;28;20030;-65
2023/04/08 02:32:27;;;;;;;25.98;19.20;;;;;;;6.27;100.00;100859.38;5009520;28;20046;-68
2023/04/08 02:34:55;;;;;;;26.90;19.58;;;;;;;6.25;100.00;100853.25;5009675;28;20125;-69
2023/04/08 02:37:21;;;;;;;23.98;19.27;;;;;;;6.22;100.00;100864.22;5009807;28;20791;-65
2023/04/08 02:39:46;;;;;;;28.83;18.88;;;;;;;5.69;100.00;100782.34;5009409;28;20045;-68
2023/04/08 02:42:11;;;;;;;23.40;18.52;;;;;;;6.24;100.00;100857.50;4993313;28;20042;-69
2023/04/08 02:44:37;;;;;;;26.30;19.38;;;;;;;6.26;100.00;100853.34;5009380;28;20074;-68
2023/04/08 02:47:02;;;;;;;23.15;18.23;;;;;;;6.25;100.00;100841.31;4992751;28;20048;-69
2023/04/08 02:49:28;;;;;;;26.95;18.63;;;;;;;6.36;100.00;100861.59;5008887;28;20052;-69
2023/04/08 02:51:53;;;;;;;23.52;17.80;;;;;;;6.24;100.00;100854.94;5007164;28;20073;-66
2023/04/08 02:54:19;;;;;;;22.58;18.23;;;;;;;6.03;100.00;100848.50;5010672;28;20044;-69
2023/04/08 02:56:45;;;;;;;26.65;19.65;;;;;;;6.06;100.00;100853.81;5011758;28;20117;-68
2023/04/08 02:59:11;;;;;;;26.40;19.17;;;;;;;6.01;100.00;100858.66;5011516;28;20046;-67
2023/04/08 03:01:36;;;;;;;27.42;20.20;;;;;;;6.02;100.00;100859.53;5011463;28;20455;-65
2023/04/08 03:04:02;;;;;;;24.77;19.15;;;;;;;6.05;100.00;100859.72;5011577;28;20085;-69
2023/04/08 03:06:27;;;;;;;25.73;19.48;;;;;;;6.11;100.00;100860.97;5011914;28;20045;-65
2023/04/08 03:08:52;;;;;;;25.67;18.40;;;;;;;5.91;100.00;100821.28;5105501;22;20024;-66
2023/04/08 03:11:18;;;;;;;26.15;18.30;;;;;;;6.15;100.00;100862.06;5052290;28;20037;-66
2023/04/08 03:13:43;;;;;;;25.30;18.60;;;;;;;5.94;100.00;100826.63;5050998;28;20055;-66
2023/04/08 03:16:09;;;;;;;24.42;18.55;;;;;;;6.21;100.00;100876.94;5030577;28;20033;-68
2023/04/08 03:18:34;;;;;;;24.75;18.48;;;;;;;6.26;100.00;100875.53;5040504;28;20044;-66
2023/04/08 03:21:02;;;;;;;25.00;18.90;;;;;;;6.26;100.00;100872.97;5049696;28;20036;-67
2023/04/08 03:23:27;;;;;;;28.70;18.83;;;;;;;6.32;100.00;100873.34;5041498;28;20083;-65
2023/04/08 03:25:52;;;;;;;25.70;18.52;;;;;;;6.20;100.00;100864.91;5030037;28;20036;-71
2023/04/08 03:28:18;;;;;;;23.70;18.40;;;;;;;6.06;100.00;100864.94;5049575;28;20041;-68
2023/04/08 03:30:43;;;;;;;28.08;18.42;;;;;;;5.98;100.00;100873.78;5048761;28;20491;-69
2023/04/08 03:33:09;;;;;;;26.02;19.10;;;;;;;5.98;100.00;100876.34;5048990;28;20037;-69
2023/04/08 03:35:34;;;;;;;26.65;18.20;;;;;;;6.00;100.00;100869.69;5049195;28;20490;-65
2023/04/08 03:38:00;;;;;;;27.33;18.23;;;;;;;6.07;100.00;100876.06;5049136;28;20075;-70
2023/04/08 03:40:25;;;;;;;25.60;18.85;;;;;;;6.18;100.00;100885.34;5049227;28;20048;-67
2023/04/08 03:42:51;;;;;;;24.70;19.52;;;;;;;6.11;100.00;100854.97;5049534;28;20037;-65
2023/04/08 03:45:17;;;;;;;23.38;18.13;;;;;;;6.28;100.00;100873.94;5049319;28;20467;-67
2023/04/08 03:47:42;;;;;;;26.92;17.80;;;;;;;6.32;100.00;100896.44;5049005;28;20675;-66
2023/04/08 03:50:08;;;;;;;25.80;19.48;;;;;;;6.26;100.00;100898.63;5048778;28;20234;-69
2023/04/08 03:52:34;;;;;;;24.30;19.13;;;;;;;6.23;100.00;100893.28;5048818;28;20048;-69
2023/04/08 03:54:59;;;;;;;28.83;20.98;;;;;;;5.92;100.00;100865.72;5049342;28;20033;-65
2023/04/08 03:57:26;;;;;;;25.83;19.10;;;;;;;5.76;100.00;100895.53;5048791;28;20199;-68
2023/04/08 03:59:51;;;;;;;27.13;19.40;;;;;;;5.14;100.00;100790.88;5050565;28;20040;-68
2023/04/08 04:02:17;;;;;;;27.58;21.02;;;;;;;5.70;100.00;100896.81;5050168;28;20066;-68
2023/04/08 04:04:42;;;;;;;26.55;19.90;;;;;;;5.70;100.00;100896.81;5049885;28;20025;-69
2023/04/08 04:07:08;;;;;;;31.27;19.98;;;;;;;5.70;100.00;100896.81;5049654;28;20040;-69
2023/04/08 04:09:33;;;;;;;27.58;20.35;;;;;;;5.80;100.00;100911.97;5048632;28;20052;-70
2023/04/08 04:11:58;;;;;;;27.13;19.15;;;;;;;5.90;100.00;100910.88;5049598;28;20041;-67
2023/04/08 04:14:24;;;;;;;24.45;18.55;;;;;;;5.96;100.00;100911.28;5050453;28;20132;-70
2023/04/08 04:16:49;;;;;;;25.73;18.80;;;;;;;6.04;100.00;100899.84;5049695;28;20037;-69
2023/04/08 04:19:16;;;;;;;25.90;19.27;;;;;;;6.24;100.00;100908.78;5050376;28;20049;-69
2023/04/08 04:21:42;;;;;;;26.13;17.63;;;;;;;6.28;100.00;100900.47;5049889;28;20033;-69
2023/04/08 04:24:07;;;;;;;24.92;18.48;;;;;;;6.25;100.00;100884.03;5046731;28;20040;-66
2023/04/08 04:26:32;;;;;;;23.67;17.92;;;;;;;6.38;100.00;100896.81;5046799;28;20033;-69
2023/04/08 04:28:58;;;;;;;27.98;17.83;;;;;;;6.52;100.00;100909.53;5046322;28;20037;-69
2023/04/08 04:31:27;;;;;;;30.77;17.92;;;;;;;6.35;100.00;100867.53;5048248;28;20182;-67
2023/04/08 04:33:53;;;;;;;24.40;17.70;;;;;;;6.59;100.00;100906.56;5050056;28;20036;-66
2023/04/08 04:36:18;;;;;;;26.55;17.88;;;;;;;6.58;100.00;100903.13;5045551;28;20033;-66
2023/04/08 04:38:44;;;;;;;23.40;17.88;;;;;;;6.64;100.00;100895.81;5050136;28;20479;-67
2023/04/08 04:41:10;;;;;;;24.65;17.88;;;;;;;6.67;100.00;100886.50;5049908;28;20041;-69
2023/04/08 04:43:36;;;;;;;22.35;17.75;;;;;;;6.68;100.00;100884.03;5049745;28;20063;-66
2023/04/08 04:46:03;;;;;;;28.60;18.13;;;;;;;6.76;100.00;100895.63;5049990;28;20080;-67
2023/04/08 04:48:28;;;;;;;26.90;17.02;;;;;;;6.87;100.00;100896.25;5049786;28;20033;-67
2023/04/08 04:50:59;;;;;;;25.95;16.80;;;;;;;6.87;100.00;100886.00;5049735;28;20108;-69
2023/04/08 04:53:24;;;;;;;27.27;18.98;;;;;;;6.89;100.00;100892.13;5049765;28;20041;-70
2023/04/08 04:55:50;;;;;;;25.92;18.08;;;;;;;7.05;100.00;100913.53;5030470;28;20388;-68
2023/04/08 04:58:16;;;;;;;22.33;17.25;;;;;;;6.99;100.00;100898.69;5049285;28;20040;-69
2023/04/08 05:00:41;;;;;;;22.23;17.00;;;;;;;7.00;100.00;100887.59;5049340;28;20064;-67
2023/04/08 05:03:07;;;;;;;23.13;17.77;;;;;;;7.17;100.00;100903.97;5049603;28;20087;-69
2023/04/08 05:05:32;;;;;;;24.63;18.08;;;;;;;7.26;100.00;100904.53;5049952;28;20059;-69
2023/04/08 05:07:58;;;;;;;24.98;17.98;;;;;;;7.14;100.00;100873.00;5065107;28;20040;-69
2023/04/08 05:10:23;;;;;;;21.92;17.48;;;;;;;7.21;100.00;100899.91;5062347;28;20407;-69
2023/04/08 05:12:49;;;;;;;22.25;18.23;;;;;;;7.29;100.00;100920.09;5048712;28;20065;-68
2023/04/08 05:15:14;;;;;;;23.23;17.27;;;;;;;7.36;100.00;100923.00;5049293;28;20036;-70
2023/04/08 05:17:40;;;;;;;23.20;17.85;;;;;;;7.29;100.00;100904.69;5049383;28;20102;-70
2023/04/08 05:20:06;;;;;;;31.77;21.08;;;;;;;7.39;100.00;100900.97;5048275;28;20029;-69
2023/04/08 05:22:31;;;;;;;24.83;18.20;;;;;;;7.43;100.00;100920.88;5049407;28;20068;-69
2023/04/08 05:24:57;;;;;;;25.58;18.10;;;;;;;7.48;100.00;100920.25;5049345;28;20029;-66
2023/04/08 05:27:22;;;;;;;28.13;18.77;;;;;;;7.55;100.00;100925.84;5049260;28;20032;-66
2023/04/08 05:29:47;;;;;;;23.48;17.20;;;;;;;7.59;100.00;100921.75;5034010;28;20040;-69
2023/04/08 05:32:13;;;;;;;25.67;17.98;;;;;;;7.42;100.00;100872.88;5053302;28;20033;-66
2023/04/08 05:34:39;;;;;;;24.83;17.25;;;;;;;7.74;100.00;100911.44;5053080;28;20529;-70
2023/04/08 05:37:04;;;;;;;23.10;16.88;;;;;;;7.60;100.00;100880.72;5051303;28;20029;-69
2023/04/08 05:39:30;;;;;;;20.98;15.88;;;;;;;7.96;100.00;100928.03;5052829;28;20060;-66
2023/04/08 05:41:55;;;;;;;24.23;16.90;;;;;;;8.01;100.00;100921.47;5053237;28;20045;-69
2023/04/08 05:44:21;;;;;;;20.65;16.80;;;;;;;8.14;100.00;100921.34;5052370;28;20103;-69
2023/04/08 05:46:46;;;;;;;21.42;15.70;;;;;;;8.24;100.00;100915.00;5052695;28;20041;-69
2023/04/08 05:49:11;;;;;;;21.63;16.92;;;;;;;8.29;100.00;100908.41;5030376;28;20156;-72
2023/04/08 05:51:38;;;;;;;23.15;16.20;;;;;;;8.09;100.00;100871.34;5030156;28;20068;-66
2023/04/08 05:54:04;;;;;;;22.60;16.60;;;;;;;8.33;100.00;100917.19;5030251;28;20033;-65
2023/04/08 05:56:31;;;;;;;23.15;16.33;;;;;;;8.43;100.00;100912.59;5029889;28;20026;-69
2023/04/08 05:58:56;;;;;;;20.33;16.77;;;;;;;8.50;100.00;100910.38;5029723;28;20038;-70
2023/04/08 06:01:22;;;;;;;24.25;16.20;;;;;;;8.31;100.00;100877.63;4997057;28;20044;-66
2023/04/08 06:03:48;;;;;;;21.25;16.48;;;;;;;8.44;99.59;100895.47;5029568;28;20561;-69
2023/04/08 06:06:14;;;;;;;20.27;14.55;;;;;;;8.72;98.79;100909.78;5030124;28;20044;-68
2023/04/08 06:08:39;;;;;;;23.08;16.67;;;;;;;8.76;100.00;100919.47;5029064;28;20076;-71
2023/04/08 06:11:05;;;;;;;22.80;17.35;;;;;;;8.79;100.00;100916.16;5029827;28;20052;-69
2023/04/08 06:13:31;;;;;;;25.98;17.27;;;;;;;8.83;100.00;100918.94;5029146;28;20037;-67
2023/04/08 06:15:56;;;;;;;25.67;18.30;;;;;;;8.81;100.00;100912.88;5029162;28;20049;-69
2023/04/08 06:18:22;;;;;;;21.48;16.42;;;;;;;8.73;100.00;100914.16;5029434;28;20106;-69
2023/04/08 06:20:49;;;;;;;23.92;16.30;;;;;;;8.85;100.00;100927.66;5045697;28;20057;-70
2023/04/08 06:23:15;;;;;;;22.40;16.40;;;;;;;8.84;100.00;100936.19;5052701;28;20067;-67
2023/04/08 06:25:40;;;;;;;20.05;16.38;;;;;;;8.70;100.00;100947.47;5051064;28;20041;-68
2023/04/08 06:28:06;;;;;;;23.92;17.45;;;;;;;8.15;100.00;100922.22;5051922;28;20036;-70
2023/04/08 06:30:31;;;;;;;22.65;17.73;;;;;;;8.45;100.00;100952.94;5052107;28;20542;-65
2023/04/08 06:32:57;;;;;;;24.48;19.38;;;;;;;8.53;100.00;100952.59;5052164;28;20059;-69
2023/04/08 06:35:22;;;;;;;28.00;18.52;;;;;;;8.47;100.00;100947.13;5051957;28;20589;-70
2023/04/08 06:37:48;;;;;;;24.90;18.58;;;;;;;8.58;100.00;100952.84;5052456;28;20128;-71
2023/04/08 06:40:13;;;;;;;27.17;18.67;;;;;;;8.64;100.00;100952.28;5049952;28;20490;-69
2023/04/08 06:42:41;;;;;;;28.45;19.08;;;;;;;8.65;100.00;100947.22;5050116;28;20045;-67
2023/04/08 06:45:07;;;;;;;26.23;18.85;;;;;;;8.71;100.00;100956.94;5051498;28;20626;-69
2023/04/08 06:47:33;;;;;;;24.58;19.52;;;;;;;8.60;100.00;100933.22;5052131;28;20048;-72
2023/04/08 06:49:58;;;;;;;26.42;18.08;;;;;;;8.69;100.00;100953.41;5051147;28;20654;-67
2023/04/08 06:52:24;;;;;;;23.30;18.27;;;;;;;8.75;100.00;100956.31;5051394;28;20032;-69
2023/04/08 06:54:49;;;;;;;20.38;16.40;;;;;;;8.65;100.00;100954.03;5051424;28;20098;-68
2023/04/08 06:57:15;;;;;;;25.92;17.83;;;;;;;8.73;100.00;100960.47;5051248;28;20040;-71
2023/04/08 06:59:40;;;;;;;24.30;17.25;;;;;;;8.78;100.00;100955.59;5051207;28;20123;-69
2023/04/08 07:02:06;;;;;;;20.77;16.98;;;;;;;8.71;100.00;100946.63;5051885;28;20039;-71
2023/04/08 07:04:31;;;;;;;26.55;16.42;;;;;;;8.77;100.00;100961.53;5051313;28;20039;-69
2023/04/08 07:06:57;;;;;;;23.67;16.05;;;;;;;8.61;100.00;100918.66;5051121;28;20065;-68
2023/04/08 07:09:23;;;;;;;24.50;16.75;;;;;;;8.65;100.00;100920.56;5050755;28;20056;-69
2023/04/08 07:11:48;;;;;;;23.65;15.63;;;;;;;9.00;100.00;100947.28;5050904;28;20064;-72
2023/04/08 07:14:14;;;;;;;22.25;15.88;;;;;;;9.06;100.00;100945.88;5050961;28;20509;-66
2023/04/08 07:16:42;;;;;;;24.35;15.48;;;;;;;9.29;99.75;100955.59;5051147;28;20546;-66
2023/04/08 07:19:07;;;;;;;20.10;15.05;;;;;;;9.42;99.00;100945.09;5051422;28;20091;-69
2023/04/08 07:21:33;;;;;;;20.90;14.35;;;;;;;9.70;96.20;100957.59;5050856;28;20037;-68
2023/04/08 07:23:58;;;;;;;20.08;14.68;;;;;;;9.83;94.52;100964.25;5051334;28;20037;-69
2023/04/08 07:26:24;;;;;;;21.33;14.13;;;;;;;9.84;96.61;100929.91;5050060;28;20559;-68
2023/04/08 07:28:50;;;;;;;23.30;13.55;;;;;;;10.10;92.65;100968.06;5050942;28;20032;-65
2023/04/08 07:31:17;;;;;;;18.42;14.68;;;;;;;10.23;94.58;100967.84;5048137;28;20025;-66
2023/04/08 07:33:44;;;;;;;23.30;15.30;;;;;;;10.32;93.37;100954.47;5051048;28;20099;-66
2023/04/08 07:36:10;;;;;;;25.23;16.30;;;;;;;10.53;93.79;100972.66;5051241;28;20040;-66
2023/04/08 07:38:37;;;;;;;26.27;14.88;;;;;;;10.56;90.82;100969.34;5050739;28;20474;-66
2023/04/08 07:41:02;;;;;;;20.88;14.10;;;;;;;10.58;90.01;100957.34;5050367;28;20033;-69
2023/04/08 07:43:30;;;;;;;26.35;16.33;;;;;;;10.67;90.75;100978.44;5050840;28;20103;-69
2023/04/08 07:46:01;;;;;;;21.98;13.70;;;;;;;10.77;91.74;100964.25;5051030;28;20475;-69
2023/04/08 07:48:27;;;;;;;23.50;15.30;;;;;;;10.84;90.88;100971.41;5050092;28;20391;-69
2023/04/08 07:50:52;;;;;;;21.98;16.33;;;;;;;10.91;92.48;100977.75;5049834;28;20045;-66
2023/04/08 07:53:17;;;;;;;19.67;14.27;;;;;;;10.98;89.81;100964.28;5049887;28;20071;-69
2023/04/08 07:55:43;;;;;;;22.15;15.68;;;;;;;11.13;90.10;100974.41;5050366;28;20033;-65
2023/04/08 07:58:08;;;;;;;20.25;14.05;;;;;;;11.24;91.78;100977.41;5050087;28;20120;-71
2023/04/08 08:00:35;;;;;;;18.35;14.27;;;;;;;11.00;88.58;100970.38;5047361;28;20457;-69
2023/04/08 08:03:00;;;;;;;23.80;14.85;;;;;;;10.95;91.50;100975.38;5038967;28;20495;-68
2023/04/08 08:05:26;;;;;;;21.27;14.02;;;;;;;10.84;89.27;100943.91;5043486;28;20068;-67
2023/04/08 08:07:51;;;;;;;19.35;13.82;;;;;;;10.96;89.53;100963.34;5040911;28;20475;-68
2023/04/08 08:10:16;;;;;;;18.73;14.10;;;;;;;11.08;88.08;100969.03;5040220;28;20050;-66
2023/04/08 08:12:42;;;;;;;17.52;13.05;;;;;;;10.99;86.81;100960.88;5039585;28;20041;-66
2023/04/08 08:15:08;;;;;;;20.60;13.82;;;;;;;11.07;86.85;100950.88;5049697;28;20080;-69
2023/04/08 08:17:34;;;;;;;20.60;14.32;;;;;;;11.20;89.24;100949.69;5049694;28;20037;-66
2023/04/08 08:20:00;;;;;;;20.52;14.95;;;;;;;11.32;89.74;100945.91;5046355;28;20102;-72
2023/04/08 08:22:26;;;;;;;27.48;14.85;;;;;;;11.56;87.72;100955.47;5038081;28;20442;-69
2023/04/08 08:24:58;;;;;;;25.88;15.05;;;;;;;11.59;87.28;100958.22;5055692;28;20040;-67
2023/04/08 08:27:24;;;;;;;23.92;14.38;;;;;;;11.55;85.79;100945.09;5034450;28;20038;-68
2023/04/08 08:29:51;;;;;;;22.10;14.05;;;;;;;11.62;88.96;100952.28;5035426;28;20029;-69
2023/04/08 08:32:16;;;;;;;21.83;13.82;;;;;;;11.73;89.56;100943.25;5030346;28;20045;-68
2023/04/08 08:34:41;;;;;;;24.27;13.43;;;;;;;11.90;88.12;100936.16;5030253;28;20416;-68
2023/04/08 08:37:07;;;;;;;25.15;12.65;;;;;;;11.98;86.24;100923.53;5029769;28;20087;-67
2023/04/08 08:39:32;;;;;;;25.45;12.25;;;;;;;12.17;84.16;100940.66;5029934;28;20036;-65
2023/04/08 08:41:58;;;;;;;17.10;12.57;;;;;;;12.29;85.62;100938.53;5030125;28;20512;-67
2023/04/08 08:44:23;;;;;;;17.92;12.48;;;;;;;12.45;82.39;100937.38;5030005;28;20029;-67
2023/04/08 08:46:50;;;;;;;26.23;13.77;;;;;;;12.49;81.27;100938.38;5030308;28;20041;-69
2023/04/08 08:49:17;;;;;;;21.42;13.65;;;;;;;12.61;81.62;100937.94;5037989;28;20167;-70
2023/04/08 08:51:49;;;;;;;15.25;10.38;;;;;;;12.65;78.30;100931.16;5029661;28;20041;-65
2023/04/08 08:54:14;;;;;;;17.10;10.20;;;;;;;12.75;78.06;100925.50;5030176;28;20056;-65
2023/04/08 08:56:42;;;;;;;13.30;10.40;;;;;;;12.68;78.79;100920.94;5030116;28;20407;-65
2023/04/08 08:59:10;;;;;;;18.88;11.63;;;;;;;12.89;77.42;100931.16;5029953;28;20484;-68
2023/04/08 09:01:37;;;;;;;16.00;10.25;;;;;;;13.15;81.02;100929.47;5030061;28;20041;-67
2023/04/08 09:04:05;;;;;;;16.08;10.82;;;;;;;13.30;79.97;100925.63;5032804;28;20388;-64
2023/04/08 09:06:31;;;;;;;12.35;8.95;;;;;;;13.33;74.65;100921.41;5033992;28;20590;-68
2023/04/08 09:08:56;;;;;;;12.35;9.10;;;;;;;13.55;74.83;100933.41;5033952;28;20130;-65
2023/04/08 09:11:22;;;;;;;16.70;9.90;;;;;;;13.46;74.05;100903.69;5034012;28;20033;-69
2023/04/08 09:13:47;;;;;;;15.85;9.63;;;;;;;13.79;74.23;100927.22;5033528;28;20038;-67
2023/04/08 09:16:16;;;;;;;13.25;9.50;;;;;;;13.62;75.70;100898.19;5034947;28;20029;-67
2023/04/08 09:18:43;;;;;;;14.87;9.83;;;;;;;13.91;78.12;100930.19;5044357;28;20025;-66
2023/04/08 09:21:10;;;;;;;14.85;10.10;;;;;;;14.09;77.75;100926.38;5031513;28;20525;-67
2023/04/08 09:23:42;;;;;;;12.05;9.02;;;;;;;14.16;73.78;100935.25;5031275;28;20045;-68
2023/04/08 09:26:09;;;;;;;12.48;8.63;;;;;;;14.19;72.91;100933.66;5045496;28;20038;-68
2023/04/08 09:28:34;;;;;;;13.25;8.90;;;;;;;14.07;72.00;100900.38;5031379;28;20045;-68
2023/04/08 09:31:00;;;;;;;15.65;8.90;;;;;;;14.38;69.20;100934.16;5031297;28;20404;-68
2023/04/08 09:33:31;;;;;;;13.93;7.32;;;;;;;14.44;65.65;100930.88;5030572;28;20034;-70
2023/04/08 09:35:57;;;;;;;12.40;8.73;;;;;;;14.52;67.38;100921.59;5031201;28;20033;-69
2023/04/08 09:38:23;;;;;;;12.40;7.50;;;;;;;14.36;65.98;100884.75;5030895;28;20033;-65
2023/04/08 09:40:49;;;;;;;11.70;8.18;;;;;;;14.63;67.59;100909.75;5031373;28;20033;-70
2023/04/08 09:43:22;;;;;;;12.13;8.02;;;;;;;14.69;65.05;100912.56;5031173;28;20156;-68
2023/04/08 09:45:51;;;;;;;11.45;7.57;;;;;;;14.55;65.47;100916.44;5057533;28;20415;-65
2023/04/08 09:48:23;;;;;;;10.00;7.22;;;;;;;14.75;63.48;100919.63;5038375;28;20044;-69
2023/04/08 09:50:50;;;;;;;11.73;8.32;;;;;;;14.95;70.21;100911.50;5034253;28;20044;-68
2023/04/08 09:53:29;;;;;;;13.32;8.00;;;;;;;15.08;66.73;100897.06;5033265;28;20396;-70
2023/04/08 09:55:56;;;;;;;11.25;7.82;;;;;;;15.28;62.85;100905.41;5032529;28;20048;-70
2023/04/08 09:58:27;;;;;;;9.82;7.35;;;;;;;15.49;63.88;100908.50;5030310;28;20060;-65
2023/04/08 10:00:53;;;;;;;9.05;7.50;;;;;;;15.65;60.27;100907.16;5041714;28;20028;-69
2023/04/08 10:03:25;;;;;;;11.43;7.25;;;;;;;15.67;60.40;100904.56;5032154;28;20191;-70
2023/04/08 10:05:52;;;;;;;10.73;7.15;;;;;;;15.69;58.69;100882.94;5037794;28;20392;-67
2023/04/08 10:08:18;;;;;;;11.02;8.00;;;;;;;15.86;61.42;100895.47;5038373;28;20064;-67
2023/04/08 10:10:45;;;;;;;11.88;8.38;;;;;;;15.89;63.48;100877.34;5050859;28;20842;-71
2023/04/08 10:13:11;;;;;;;8.55;7.15;;;;;;;16.24;62.26;100882.41;5032218;28;20045;-70
2023/04/08 10:15:41;;;;;;;9.18;7.72;;;;;;;16.49;61.55;100891.56;5029333;28;20030;-70
2023/04/08 10:18:10;;;;;;;7.93;5.97;;;;;;;16.70;57.44;100877.22;5046995;28;20045;-72
2023/04/08 10:20:35;;;;;;;8.80;6.78;;;;;;;16.47;58.96;100880.25;5044041;28;20037;-70
2023/04/08 10:23:01;;;;;;;9.52;6.72;;;;;;;16.32;58.78;100879.94;5030965;28;20553;-70
2023/04/08 10:25:30;;;;;;;9.02;6.47;;;;;;;16.40;56.75;100872.28;5030067;28;20033;-70
2023/04/08 10:27:55;;;;;;;7.43;6.28;;;;;;;16.55;53.60;100871.69;5032123;28;20056;-70
2023/04/08 10:30:26;;;;;;;10.77;6.63;;;;;;;16.62;54.40;100869.25;5034762;28;20056;-70
2023/04/08 10:32:55;;;;;;;9.68;7.30;;;;;;;16.79;57.26;100866.06;5030833;28;20097;-68
2023/04/08 10:35:31;;;;;;;8.02;6.70;;;;;;;16.87;60.34;100864.44;5032139;28;20095;-63
2023/04/08 10:37:58;;;;;;;13.00;7.25;;;;;;;17.00;56.58;100864.69;5042217;28;20036;-68
2023/04/08 10:40:25;;;;;;;11.07;7.28;;;;;;;17.09;54.49;100862.25;5034049;28;20053;-69
2023/04/08 10:42:55;;;;;;;10.60;6.78;;;;;;;16.70;53.98;100842.41;5038288;28;20771;-69
2023/04/08 10:45:21;;;;;;;10.25;6.78;;;;;;;16.88;53.03;100844.47;5040751;28;20037;-68
2023/04/08 10:47:47;;;;;;;13.30;7.45;;;;;;;17.01;55.96;100849.09;5041696;28;20071;-68
2023/04/08 10:50:22;;;;;;;9.00;7.32;;;;;;;16.88;58.63;100858.38;5030117;28;20103;-69
2023/04/08 10:52:52;;;;;;;9.60;7.75;;;;;;;16.91;57.55;100855.88;5036347;28;20045;-68
2023/04/08 10:55:22;;;;;;;10.35;7.47;;;;;;;17.09;59.49;100828.34;5032160;28;20029;-66
2023/04/08 10:57:49;;;;;;;10.00;7.53;;;;;;;17.13;62.31;100837.97;5031894;28;20498;-68
2023/04/08 11:00:33;;;;;;;14.18;8.15;;;;;;;16.45;60.93;100779.44;5044458;28;20097;-66
2023/04/08 11:03:07;;;;;;;11.63;8.07;;;;;;;16.73;62.43;100851.19;5048877;28;20043;-71
2023/04/08 11:05:33;;;;;;;20.13;9.13;;;;;;;16.46;62.56;100835.91;5050962;28;20032;-68
2023/04/08 11:07:59;;;;;;;12.80;7.78;;;;;;;16.50;59.81;100849.03;5047746;28;20041;-69
2023/04/08 11:10:26;;;;;;;22.08;8.23;;;;;;;16.49;60.54;100849.00;5033649;28;20434;-66